• Join FlightAware (Why Join?)
  • Login
  • US Flag 
04:59PM EST


 

Airport Tracker/Info


-or-


 

Live Flight TrackerFlight Track Log ✈ UAL3835 ✈ 27-Jun-2013 ✈ KSDF - KEWR

Flight Track Log - Related Links

Times and Time Zones

All times are in EDT time to prevent confusion due to time zone crossing. See the UAL3835 flight status page for this flight to view local times or setup timezone preferences in your user account.

Time Position Orientation Groundspeed Altitude Reporting Facility
EDT Latitude Longitude Course Direction KTS MPH feet Rate Location/Type
10:45PM 38.2833 -85.7167 96° East 264 304 3,700  Level Louisville TRACON
10:45PM 38.2961 -85.6794 66° East 285 328 4,700 2,100 Climbing Indianapolis Center
10:46PM 38.0667 -85.3903 90° East  Level FlightAware Approximate
10:46PM 38.2636 -85.5706 111° Southeast 286 329 7,200  Level Indianapolis Center
10:47PM 38.0612 -85.2530 103° East  Level FlightAware Approximate
10:47PM 38.2394 -85.4708 107° East 301 346 8,800  Level Indianapolis Center
10:48PM 38.0367 -85.1184 103° East  Level FlightAware Approximate
10:48PM 38.2367 -85.3600 92° East 311 358 10,500  Level Indianapolis Center
10:49PM 38.0201 -84.9776 99° East  Level FlightAware Approximate
10:49PM 38.2344 -85.2400 91° East 334 384 11,200  Level Indianapolis Center
10:50PM 38.0072 -84.8360 96° East  Level FlightAware Approximate
10:50PM 38.2297 -85.1036 92° East 365 420 12,300  Level Indianapolis Center
10:51PM 38.2269 -84.9692 91° East 378 435 13,600 1,140 Climbing Indianapolis Center
10:52PM 38.2214 -84.8328 93° East 384 442 14,700 1,020 Climbing Indianapolis Center
10:54PM 38.2178 -84.6942 92° East 392 451 15,700 900 Climbing Indianapolis Center
10:55PM 38.2131 -84.5528 92° East 398 458 16,600 780 Climbing Indianapolis Center
10:56PM 38.2072 -84.4089 93° East 405 466 17,400 780 Climbing Indianapolis Center
10:57PM 38.2017 -84.2628 93° East 411 473 18,300 840 Climbing Indianapolis Center
10:58PM 38.1967 -84.0903 92° East 417 480 19,200 780 Climbing Indianapolis Center
10:59PM 38.1903 -83.9406 93° East 424 488 20,000 780 Climbing Indianapolis Center
11:00PM 38.1836 -83.7881 93° East 429 494 20,900 780 Climbing Indianapolis Center
11:01PM 38.1781 -83.6328 93° East 436 502 21,700 780 Climbing Indianapolis Center
11:02PM 38.1708 -83.4775 93° East 438 504 22,500 780 Climbing Indianapolis Center
11:03PM 38.1642 -83.3222 93° East 439 505 23,300 780 Climbing Indianapolis Center
11:04PM 38.1567 -83.1647 93° East 443 510 24,100 780 Climbing Indianapolis Center
11:05PM 38.1492 -83.0056 93° East 448 516 25,000 840 Climbing Indianapolis Center
11:06PM 38.1417 -82.8489 93° East 445 512 25,900 1,020 Climbing Indianapolis Center
11:07PM 38.1328 -82.6683 94° East 439 505 27,100 1,020 Climbing Indianapolis Center
11:08PM 38.1250 -82.5131 94° East 438 504 28,100 840 Climbing Indianapolis Center
11:09PM 38.1178 -82.3739 94° East 437 503 28,900 840 Climbing Indianapolis Center
11:10PM 38.1097 -82.2217 94° East 435 501 29,900 900 Climbing Indianapolis Center
11:11PM 38.1025 -82.0692 93° East 434 499 30,800 1,020 Climbing Indianapolis Center
11:12PM 38.0919 -81.8864 94° East 436 502 32,000 1,260 Climbing Indianapolis Center
11:13PM 38.0833 -81.7347 94° East 433 498 33,400 1,320 Climbing Indianapolis Center
11:14PM 38.0744 -81.5875 94° East 424 488 34,800 780 Climbing Indianapolis Center
11:15PM 38.0644 -81.4414 95° East 419 482 35,000 60 Climbing Indianapolis Center
11:16PM 38.0550 -81.2878 94° East 436 502 35,000  Level Indianapolis Center
11:17PM 38.0450 -81.1261 94° East 459 528 35,000  Level Indianapolis Center
11:18PM 38.0342 -80.9589 95° East 474 545 35,000  Level Indianapolis Center
11:19PM 38.0242 -80.7975 94° East 464 534 35,000  Level Indianapolis Center
11:20PM 38.0111 -80.6067 95° East 455 524 35,000  Level Indianapolis Center
11:21PM 37.9992 -80.4394 95° East 460 529 35,000  Level Indianapolis Center
11:22PM 37.9883 -80.2808 95° East 465 535 35,000  Level Indianapolis Center
11:23PM 37.9778 -80.1217 95° East 463 533 35,000  Level Indianapolis Center
11:24PM 37.9661 -79.9583 95° East 472 543 35,000  Level Indianapolis Center
11:25PM 37.9511 -79.7639 96° East 472 543 35,000  Level Indianapolis Center
11:26PM 37.9389 -79.6008 95° East 475 547 35,000  Level Indianapolis Center
11:27PM 37.9272 -79.4375 95° East 474 545 35,000  Level Indianapolis Center
11:29PM 37.9175 -79.2428 94° East 474 545 35,000  Level Washington Center
11:30PM 37.9078 -79.0764 94° East 479 551 35,000  Level Washington Center
11:31PM 37.9269 -78.9142 81° East 474 545 35,000  Level Washington Center
11:32PM 37.9461 -78.7517 81° East 468 539 35,000  Level Washington Center
11:33PM 37.9694 -78.5761 80° East 462 532 35,000  Level Washington Center
11:34PM 37.9858 -78.4161 83° East 462 532 35,000  Level Washington Center
11:35PM 38.0061 -78.2536 81° East 462 532 35,000  Level Washington Center
11:36PM 38.0297 -78.1200 77° East 456 525 35,000  Level Washington Center
11:37PM 38.0994 -77.9797 58° Northeast 446 513 35,000  Level Washington Center
11:38PM 38.1711 -77.8394 57° Northeast 446 513 35,000  Level Washington Center
11:39PM 38.2403 -77.6986 58° Northeast 457 526 35,000  Level Washington Center
11:40PM 38.3072 -77.5578 59° Northeast 465 535 35,000  Level Washington Center
11:41PM 38.3581 -77.3817 70° East 470 541 35,000  Level Washington Center
11:42PM 38.4019 -77.2183 71° East 476 548 35,000  Level Washington Center
11:43PM 38.4458 -77.0578 71° East 476 548 35,000  Level Washington Center
11:44PM 38.5161 -76.9131 58° Northeast 469 540 35,000  Level Washington Center
11:45PM 38.6217 -76.7981 40° Northeast 477 549 35,000  Level Washington Center
11:46PM 38.7269 -76.6828 40° Northeast 483 556 35,000  Level Washington Center
11:47PM 38.8303 -76.5722 40° Northeast 483 556 35,000  Level Washington Center
11:48PM 38.9353 -76.4589 40° Northeast 483 556 35,000 -480 Level Washington Center
11:49PM 39.0361 -76.3453 41° Northeast 483 556 34,100 -1,740 Descending Washington Center
11:50PM 39.1389 -76.2311 41° Northeast 483 556 31,600 -2,880 Descending Washington Center
11:51PM 39.2436 -76.1222 39° Northeast 483 556 28,500 -3,000 Descending Washington Center
11:52PM 39.3400 -76.0103 42° Northeast 476 548 25,700 -2,340 Descending Washington Center
11:53PM 39.4278 -75.9086 42° Northeast 449 517 23,800 -1,740 Descending Washington Center
11:54PM 39.5133 -75.8067 43° Northeast 424 488 22,300 -1,620 Descending Washington Center
11:55PM 39.5947 -75.7100 42° Northeast 405 466 20,700 -1,140 Descending Washington Center
11:56PM 39.6781 -75.6103 43° Northeast 400 460 20,000 -900 Descending Washington Center
11:57PM 39.7614 -75.5133 42° Northeast 395 455 19,000 -1,800 Descending Washington Center
11:58PM 39.8425 -75.4131 43° Northeast 395 455 16,500 -2,100 Descending Washington Center
11:59PM 39.9194 -75.3183 43° Northeast 395 455 14,800 -1,320 Descending Washington Center
12:00AM 39.9964 -75.2231 43° Northeast 390 449 13,800 -1,140 Descending Washington Center
12:01AM 40.0753 -75.1306 42° Northeast 385 443 12,600 -1,680 Descending Washington Center
12:02AM 40.1478 -75.0350 45° Northeast 380 437 10,500 -1,560 Descending Washington Center
12:02AM 40.2000 -74.9833 37° Northeast 338 389 9,900 -1,380 Descending New York TRACON
12:03AM 40.2500 -74.9000 52° Northeast 318 366 8,300 -1,020 Descending New York TRACON
12:04AM 40.3167 -74.8167 44° Northeast 314 361 8,000 -600 Descending New York TRACON
12:05AM 40.3833 -74.7333 44° Northeast 319 367 7,100 -960 Descending New York TRACON
12:06AM 40.4500 -74.7000 21° North 295 339 6,200 -540 Descending New York TRACON
12:07AM 40.5333 -74.6833 North 292 336 6,100 -120 Descending New York TRACON
12:08AM 40.6167 -74.6667 North 292 336 6,000  Descending New York TRACON
12:09AM 40.6833 -74.6333 21° North 301 346 6,100 -180 Climbing New York TRACON
12:10AM 40.7500 -74.5833 30° Northeast 306 352 5,700 -840 Descending New York TRACON
12:11AM 40.8167 -74.5333 30° Northeast 275 316 4,600 -900 Descending New York TRACON
12:12AM 40.8833 -74.4833 30° Northeast 262 302 4,000 -300 Descending New York TRACON
12:13AM 40.9333 -74.4167 45° Northeast 270 311 4,000 -60 Level New York TRACON
12:14AM 40.9667 -74.3333 62° Northeast 248 285 3,900 -480 Descending New York TRACON
12:15AM 40.9833 -74.2333 78° East 237 273 3,000 -480 Descending New York TRACON
12:16AM 40.9833 -74.1667 90° East 214 246 3,000  Level New York TRACON
12:17AM 40.9333 -74.1167 143° Southeast 188 216 3,100  Climbing New York TRACON
12:18AM 40.9000 -74.0833 143° Southeast 171 197 3,100 -300 Level New York TRACON
12:19AM 40.8500 -74.0667 166° South 168 193 2,500 -300 Descending New York TRACON
12:20AM 40.8167 -74.0833 201° Southwest 149 171 2,500 -420 Level New York TRACON
12:21AM 40.7833 -74.1167 217° Southwest 143 165 1,800 -720 Descending New York TRACON
12:22AM 40.7500 -74.1333 201° Southwest 116 133 1,100 -660 Descending New York TRACON
12:23AM 40.7167 -74.1500 201° Southwest 120 138 500 -600 Descending New York TRACON
12:25AM 40.6925 -74.1687 180° South  Level Estimated